createdAt,value
2023-01-13T00:00:11.559Z,2.50
2023-01-13T00:03:14.564Z,2.63
2023-01-13T00:06:19.918Z,2.70
2023-01-13T00:09:24.479Z,2.47
2023-01-13T00:12:27.549Z,2.57
2023-01-13T00:15:30.561Z,2.60
2023-01-13T00:18:33.671Z,2.70
2023-01-13T00:21:37.202Z,2.57
2023-01-13T00:24:41.680Z,2.60
2023-01-13T00:27:44.742Z,2.60
2023-01-13T00:30:47.796Z,2.47
2023-01-13T00:33:51.244Z,2.63
2023-01-13T00:36:54.319Z,2.53
2023-01-13T00:39:58.892Z,2.60
2023-01-13T00:43:19.549Z,2.57
2023-01-13T00:46:23.569Z,2.50
2023-01-13T00:49:26.622Z,2.43
2023-01-13T00:52:29.712Z,2.40
2023-01-13T00:55:34.138Z,2.40
2023-01-13T00:58:37.727Z,2.60
2023-01-13T01:01:42.022Z,2.50
2023-01-13T01:04:45.323Z,2.30
2023-01-13T01:07:48.401Z,2.60
2023-01-13T01:11:02.773Z,2.43
2023-01-13T01:14:06.031Z,2.80
2023-01-13T01:17:09.078Z,2.57
2023-01-13T01:20:12.753Z,2.40
2023-01-13T01:23:15.914Z,2.40
2023-01-13T01:26:22.769Z,2.70
2023-01-13T01:29:25.780Z,2.77
2023-01-13T01:32:28.845Z,2.53
2023-01-13T01:35:31.847Z,2.43
2023-01-13T01:38:34.858Z,2.50
2023-01-13T01:41:39.569Z,2.73
2023-01-13T01:45:01.418Z,2.33
2023-01-13T01:48:07.418Z,2.30
2023-01-13T01:51:14.344Z,2.33
2023-01-13T01:54:21.425Z,2.30
2023-01-13T01:57:30.763Z,2.57
2023-01-13T02:00:33.985Z,2.40
2023-01-13T02:03:40.350Z,2.23
2023-01-13T02:06:45.197Z,2.40
2023-01-13T02:09:49.343Z,2.20
2023-01-13T02:12:55.111Z,2.43
2023-01-13T02:16:04.698Z,2.40
2023-01-13T02:19:22.846Z,2.30
2023-01-13T02:22:47.482Z,2.20
2023-01-13T02:26:16.537Z,2.50
2023-01-13T02:29:55.813Z,2.40
2023-01-13T02:33:10.110Z,2.10
2023-01-13T02:36:20.770Z,2.50
2023-01-13T02:39:30.951Z,2.20
2023-01-13T02:42:52.597Z,2.00
2023-01-13T02:46:02.084Z,2.40
2023-01-13T02:49:08.778Z,2.10
2023-01-13T02:52:15.029Z,2.30
2023-01-13T02:55:21.916Z,2.10
2023-01-13T02:58:29.832Z,2.10
2023-01-13T03:01:34.434Z,2.30
2023-01-13T03:05:01.933Z,2.20
2023-01-13T03:08:31.612Z,2.20
2023-01-13T03:11:44.510Z,2.20
2023-01-13T03:14:54.291Z,2.43
2023-01-13T03:18:07.548Z,2.40
2023-01-13T03:21:16.685Z,2.60
2023-01-13T03:24:23.710Z,2.40
2023-01-13T03:27:32.518Z,2.30
2023-01-13T03:30:40.970Z,2.40
2023-01-13T03:33:49.671Z,2.20
2023-01-13T03:36:56.552Z,2.50
2023-01-13T03:40:04.239Z,2.33
2023-01-13T03:43:30.063Z,2.10
2023-01-13T03:46:38.599Z,2.30
2023-01-13T03:49:49.579Z,2.20
2023-01-13T03:52:57.338Z,2.40
2023-01-13T03:56:04.034Z,2.30
2023-01-13T03:59:11.712Z,2.30
2023-01-13T04:02:20.122Z,2.37
2023-01-13T04:05:25.217Z,2.10
2023-01-13T04:08:29.928Z,2.23
2023-01-13T04:11:38.348Z,2.30
2023-01-13T04:14:42.681Z,2.30
2023-01-13T04:17:46.053Z,2.20
2023-01-13T04:20:52.536Z,2.20
2023-01-13T04:23:55.724Z,2.20
2023-01-13T04:26:58.795Z,2.27
2023-01-13T04:30:01.841Z,2.20
2023-01-13T04:33:05.523Z,2.37
2023-01-13T04:36:10.635Z,2.20
2023-01-13T04:39:13.727Z,2.10
2023-01-13T04:42:16.749Z,2.27
2023-01-13T04:45:19.772Z,2.20
2023-01-13T04:48:22.900Z,2.17
2023-01-13T04:51:27.480Z,2.20
2023-01-13T04:54:30.692Z,2.00
2023-01-13T04:57:34.911Z,2.30
2023-01-13T05:00:38.706Z,2.40
2023-01-13T05:03:41.724Z,2.40
2023-01-13T05:06:46.142Z,2.30
2023-01-13T05:09:49.226Z,2.30
2023-01-13T05:13:10.809Z,2.20
2023-01-13T05:16:31.165Z,2.20
2023-01-13T05:19:36.264Z,2.30
2023-01-13T05:22:58.222Z,2.30
2023-01-13T05:26:01.215Z,2.10
2023-01-13T05:29:04.172Z,2.10
2023-01-13T05:32:08.333Z,2.20
2023-01-13T05:35:11.417Z,2.20
2023-01-13T05:38:17.972Z,2.03
2023-01-13T05:41:38.286Z,2.20
2023-01-13T05:44:41.275Z,2.33
2023-01-13T05:47:44.315Z,1.97
2023-01-13T05:50:49.124Z,2.23
2023-01-13T05:53:53.492Z,2.13
2023-01-13T05:56:56.533Z,2.20
2023-01-13T05:59:59.571Z,2.30
2023-01-13T06:03:02.654Z,1.90
2023-01-13T06:06:08.871Z,2.37
2023-01-13T06:09:13.543Z,2.30
2023-01-13T06:12:16.549Z,2.30
2023-01-13T06:15:20.069Z,2.27
2023-01-13T06:18:23.123Z,2.10
2023-01-13T06:21:26.126Z,2.30
2023-01-13T06:24:30.567Z,2.20
2023-01-13T06:27:33.602Z,2.20
2023-01-13T06:30:39.817Z,2.27
2023-01-13T06:33:45.936Z,2.43
2023-01-13T06:36:53.205Z,2.30
2023-01-13T06:40:00.323Z,2.10
2023-01-13T06:43:16.813Z,2.27
2023-01-13T06:46:20.080Z,2.30
2023-01-13T06:49:23.188Z,2.23
2023-01-13T06:52:27.278Z,2.60
2023-01-13T06:55:31.639Z,2.50
2023-01-13T06:58:34.684Z,2.80
2023-01-13T07:01:37.763Z,2.20
2023-01-13T07:04:40.844Z,2.53
2023-01-13T07:07:44.041Z,2.47
2023-01-13T07:10:48.459Z,2.40
2023-01-13T07:14:08.987Z,2.50
2023-01-13T07:17:12.055Z,1.93
2023-01-13T07:20:15.075Z,2.70
2023-01-13T07:23:18.081Z,2.27
2023-01-13T07:26:22.537Z,2.30
2023-01-13T07:29:25.573Z,2.37
2023-01-13T07:32:28.640Z,2.40
2023-01-13T07:35:31.756Z,2.40
2023-01-13T07:38:35.707Z,2.30
2023-01-13T07:41:56.563Z,2.57
2023-01-13T07:44:59.787Z,2.50
2023-01-13T07:48:02.878Z,2.30
2023-01-13T07:51:07.162Z,2.40
2023-01-13T07:54:10.163Z,2.20
2023-01-13T07:57:14.582Z,2.60
2023-01-13T08:00:19.014Z,2.30
2023-01-13T08:03:22.400Z,2.37
2023-01-13T08:06:25.774Z,2.20
2023-01-13T08:09:29.016Z,2.33
2023-01-13T08:12:53.732Z,2.20
2023-01-13T08:16:02.087Z,2.20
2023-01-13T08:19:05.140Z,3.17
2023-01-13T08:22:08.183Z,2.20
2023-01-13T08:25:11.468Z,2.17
2023-01-13T08:28:17.190Z,2.53
2023-01-13T08:31:21.405Z,2.10
2023-01-13T08:34:24.486Z,2.50
2023-01-13T08:37:27.599Z,2.33
2023-01-13T08:40:30.629Z,2.43
2023-01-13T08:43:35.030Z,2.60
2023-01-13T08:46:38.494Z,4.90
2023-01-13T08:49:41.695Z,2.53
2023-01-13T08:52:44.742Z,2.47
2023-01-13T08:55:47.868Z,2.70
2023-01-13T08:58:52.288Z,2.40
2023-01-13T09:01:55.505Z,2.77
2023-01-13T09:05:00.411Z,2.50
2023-01-13T09:08:03.430Z,2.73
2023-01-13T09:11:27.143Z,2.83
2023-01-13T09:14:33.941Z,3.33
2023-01-13T09:17:36.943Z,2.77
2023-01-13T09:20:40.393Z,3.37
2023-01-13T09:23:43.452Z,3.73
2023-01-13T09:26:46.481Z,2.83
2023-01-13T09:29:51.011Z,2.67
2023-01-13T09:33:14.371Z,2.83
2023-01-13T09:36:17.537Z,2.83
2023-01-13T09:39:20.651Z,3.20
2023-01-13T09:42:49.554Z,3.17
2023-01-13T09:46:00.860Z,2.80
2023-01-13T09:49:04.550Z,4.20
2023-01-13T09:52:15.013Z,2.50
2023-01-13T09:55:20.109Z,3.13
2023-01-13T09:58:24.154Z,2.77
2023-01-13T10:01:34.922Z,3.07
2023-01-13T10:04:37.942Z,3.00
2023-01-13T10:07:49.422Z,2.70
2023-01-13T10:10:55.894Z,3.10
2023-01-13T10:14:01.194Z,2.67
2023-01-13T10:17:13.417Z,2.70
2023-01-13T10:20:22.189Z,3.03
2023-01-13T10:23:39.831Z,2.70
2023-01-13T10:26:53.259Z,2.27
2023-01-13T10:29:56.261Z,2.73
2023-01-13T10:33:03.065Z,2.77
2023-01-13T10:36:15.096Z,3.13
2023-01-13T10:39:20.248Z,2.47
2023-01-13T10:42:25.346Z,2.50
2023-01-13T10:45:28.451Z,3.17
2023-01-13T10:48:42.113Z,2.70
2023-01-13T10:51:46.154Z,3.13
2023-01-13T10:54:53.715Z,2.60
2023-01-13T10:57:57.021Z,3.03
2023-01-13T11:01:02.201Z,2.63
2023-01-13T11:04:28.470Z,2.70
2023-01-13T11:07:34.806Z,2.80
2023-01-13T11:10:47.187Z,2.87
2023-01-13T11:14:09.120Z,2.63
2023-01-13T11:17:31.876Z,2.63
2023-01-13T11:20:41.341Z,2.50
2023-01-13T11:23:51.368Z,2.30
2023-01-13T11:27:00.184Z,2.47
2023-01-13T11:30:11.036Z,2.40
2023-01-13T11:33:36.565Z,2.70
2023-01-13T11:36:46.061Z,2.70
2023-01-13T11:39:56.263Z,2.90
2023-01-13T11:43:05.587Z,2.60
2023-01-13T11:46:11.117Z,2.60
2023-01-13T11:49:23.864Z,2.60
2023-01-13T11:52:41.350Z,2.60
2023-01-13T11:55:54.851Z,2.33
2023-01-13T11:59:32.425Z,2.47
2023-01-13T12:02:49.886Z,2.87
2023-01-13T12:06:08.919Z,2.40
2023-01-13T12:09:31.365Z,2.57
2023-01-13T12:12:47.501Z,2.70
2023-01-13T12:15:59.963Z,2.93
2023-01-13T12:19:25.571Z,2.43
2023-01-13T12:22:31.958Z,2.80
2023-01-13T12:25:41.489Z,2.63
2023-01-13T12:28:50.263Z,2.50
2023-01-13T12:31:53.822Z,2.63
2023-01-13T12:35:12.312Z,2.77
2023-01-13T12:38:23.078Z,2.97
2023-01-13T12:42:01.181Z,2.63
2023-01-13T12:45:28.429Z,3.10
2023-01-13T12:49:05.119Z,3.00
2023-01-13T12:52:18.314Z,2.97
2023-01-13T12:55:22.426Z,2.70
2023-01-13T12:58:30.217Z,3.10
2023-01-13T13:01:37.004Z,2.77
2023-01-13T13:04:47.424Z,3.07
2023-01-13T13:07:53.339Z,2.93
2023-01-13T13:11:02.864Z,2.80
2023-01-13T13:14:07.211Z,3.43
2023-01-13T13:17:40.762Z,3.07
2023-01-13T13:21:06.959Z,2.80
2023-01-13T13:24:12.152Z,3.10
2023-01-13T13:27:19.011Z,2.70
2023-01-13T13:30:29.602Z,2.80
2023-01-13T13:33:47.695Z,2.60
2023-01-13T13:37:26.420Z,2.63
2023-01-13T13:40:51.805Z,3.10
2023-01-13T13:44:12.335Z,2.70
2023-01-13T13:47:16.843Z,4.57
2023-01-13T13:50:22.179Z,3.27
2023-01-13T13:53:28.507Z,3.17
2023-01-13T13:56:36.591Z,2.90
2023-01-13T13:59:40.939Z,2.87
2023-01-13T14:02:52.092Z,3.13
2023-01-13T14:05:58.188Z,3.93
2023-01-13T14:09:01.358Z,3.40
2023-01-13T14:12:06.682Z,3.40
2023-01-13T14:15:32.222Z,2.80
2023-01-13T14:18:45.397Z,3.10
2023-01-13T14:21:49.450Z,3.03
2023-01-13T14:24:55.552Z,3.70
2023-01-13T14:28:01.532Z,3.53
2023-01-13T14:31:06.168Z,3.17
2023-01-13T14:34:32.633Z,3.27
2023-01-13T14:37:39.584Z,3.20
2023-01-13T14:40:46.848Z,3.17
2023-01-13T14:43:51.825Z,3.10
2023-01-13T14:46:56.580Z,3.33
2023-01-13T14:50:05.670Z,2.93
2023-01-13T14:53:28.619Z,2.90
2023-01-13T14:56:40.163Z,3.30
2023-01-13T14:59:48.293Z,3.57
2023-01-13T15:03:01.900Z,3.20
2023-01-13T15:06:24.161Z,3.73
2023-01-13T15:09:29.451Z,3.33
2023-01-13T15:12:38.870Z,4.23
2023-01-13T15:15:41.928Z,3.67
2023-01-13T15:18:44.983Z,3.40
2023-01-13T15:21:51.142Z,3.70
2023-01-13T15:24:56.918Z,3.80
2023-01-13T15:27:59.955Z,4.00
2023-01-13T15:31:03.846Z,3.20
2023-01-13T15:34:07.025Z,3.40
2023-01-13T15:37:11.980Z,3.03
2023-01-13T15:40:17.887Z,3.27
2023-01-13T15:43:40.585Z,3.50
2023-01-13T15:46:44.263Z,4.93
2023-01-13T15:49:47.811Z,3.80
2023-01-13T15:52:52.185Z,3.30
2023-01-13T15:55:58.887Z,3.50
2023-01-13T15:59:01.938Z,3.67
2023-01-13T16:02:04.955Z,3.63
2023-01-13T16:05:08.490Z,3.37
2023-01-13T16:08:15.891Z,3.03
2023-01-13T16:11:18.881Z,4.00
2023-01-13T16:14:21.957Z,3.73
2023-01-13T16:17:30.175Z,3.80
2023-01-13T16:20:33.221Z,4.10
2023-01-13T16:23:37.647Z,3.83
2023-01-13T16:26:40.770Z,3.30
2023-01-13T16:29:44.012Z,3.80
2023-01-13T16:32:47.623Z,3.60
2023-01-13T16:36:10.066Z,6.20
2023-01-13T16:39:22.921Z,3.30
2023-01-13T16:42:25.889Z,4.03
2023-01-13T16:45:29.321Z,3.57
2023-01-13T16:48:32.371Z,3.57
2023-01-13T16:51:35.369Z,3.40
2023-01-13T16:54:39.749Z,3.90
2023-01-13T16:57:42.806Z,3.10
2023-01-13T17:00:46.807Z,3.67
2023-01-13T17:03:51.393Z,3.30
2023-01-13T17:06:58.489Z,3.10
2023-01-13T17:10:02.907Z,3.90
2023-01-13T17:13:15.647Z,3.57
2023-01-13T17:16:22.704Z,3.23
2023-01-13T17:19:26.379Z,3.23
2023-01-13T17:22:30.736Z,3.50
2023-01-13T17:25:35.169Z,3.47
2023-01-13T17:28:38.222Z,4.00
2023-01-13T17:31:41.380Z,3.23
2023-01-13T17:34:45.016Z,3.23
2023-01-13T17:37:48.041Z,3.40
2023-01-13T17:40:52.477Z,3.77
2023-01-13T17:43:55.562Z,3.87
2023-01-13T17:46:58.624Z,3.50
2023-01-13T17:50:01.611Z,3.57
2023-01-13T17:53:04.611Z,3.93
2023-01-13T17:56:10.523Z,3.73
2023-01-13T17:59:14.547Z,3.83
2023-01-13T18:02:17.603Z,3.67
2023-01-13T18:05:20.671Z,3.80
2023-01-13T18:08:24.467Z,3.30
2023-01-13T18:11:29.001Z,4.10
2023-01-13T18:14:32.155Z,3.70
2023-01-13T18:17:35.181Z,3.93
2023-01-13T18:20:55.763Z,3.70
2023-01-13T18:24:12.645Z,4.10
2023-01-13T18:27:22.869Z,3.90
2023-01-13T18:30:26.619Z,4.03
2023-01-13T18:33:29.625Z,3.80
2023-01-13T18:36:32.676Z,3.50
2023-01-13T18:39:37.293Z,3.57
2023-01-13T18:42:55.165Z,3.17
2023-01-13T18:45:58.300Z,3.23
2023-01-13T18:49:02.494Z,3.53
2023-01-13T18:52:05.921Z,3.80
2023-01-13T18:55:09.512Z,3.27
2023-01-13T18:58:13.905Z,3.70
2023-01-13T19:01:17.028Z,3.57
2023-01-13T19:04:20.089Z,3.97
2023-01-13T19:07:24.491Z,4.10
2023-01-13T19:10:31.629Z,4.00
2023-01-13T19:13:36.906Z,4.17
2023-01-13T19:16:39.945Z,3.87
2023-01-13T19:19:44.709Z,3.80
2023-01-13T19:22:53.898Z,3.67
2023-01-13T19:26:00.024Z,3.93
2023-01-13T19:29:04.507Z,3.60
2023-01-13T19:32:07.634Z,4.80
2023-01-13T19:35:12.966Z,3.77
2023-01-13T19:38:16.052Z,2.90
2023-01-13T19:41:32.913Z,4.10
2023-01-13T19:44:54.863Z,3.60
2023-01-13T19:47:59.195Z,3.70
2023-01-13T19:51:02.420Z,3.27
2023-01-13T19:54:05.779Z,3.63
2023-01-13T19:57:08.918Z,3.70
2023-01-13T20:00:18.371Z,3.40
2023-01-13T20:03:24.330Z,3.40
2023-01-13T20:06:27.312Z,3.33
2023-01-13T20:09:31.622Z,3.23
2023-01-13T20:12:34.709Z,3.53
2023-01-13T20:15:40.416Z,3.77
2023-01-13T20:18:43.518Z,3.63
2023-01-13T20:21:46.494Z,4.00
2023-01-13T20:24:54.831Z,3.80
2023-01-13T20:27:58.791Z,6.53
2023-01-13T20:31:07.059Z,4.13
2023-01-13T20:34:10.376Z,3.67
2023-01-13T20:37:13.364Z,3.57
2023-01-13T20:40:18.359Z,3.70
2023-01-13T20:43:21.344Z,3.50
2023-01-13T20:46:25.742Z,3.40
2023-01-13T20:49:30.195Z,3.83
2023-01-13T20:52:33.234Z,3.57
2023-01-13T20:55:36.281Z,3.87
2023-01-13T20:58:39.814Z,3.60
2023-01-13T21:01:44.482Z,3.60
2023-01-13T21:04:47.548Z,3.90
2023-01-13T21:07:50.567Z,3.90
2023-01-13T21:10:59.564Z,3.60
2023-01-13T21:14:19.985Z,3.40
2023-01-13T21:17:41.581Z,4.10
2023-01-13T21:20:44.630Z,3.80
2023-01-13T21:23:52.727Z,3.60
2023-01-13T21:26:58.094Z,3.40
2023-01-13T21:30:01.084Z,3.90
2023-01-13T21:33:06.260Z,3.90
2023-01-13T21:36:10.533Z,3.73
2023-01-13T21:39:15.406Z,4.13
2023-01-13T21:42:36.174Z,3.73
2023-01-13T21:45:57.592Z,3.70
2023-01-13T21:49:02.049Z,3.83
2023-01-13T21:52:05.246Z,3.70
2023-01-13T21:55:28.415Z,4.10
2023-01-13T21:58:31.445Z,3.60
2023-01-13T22:01:34.574Z,3.90
2023-01-13T22:04:39.133Z,3.60
2023-01-13T22:07:42.407Z,3.77
2023-01-13T22:10:57.646Z,4.40
2023-01-13T22:14:07.132Z,3.53
2023-01-13T22:17:10.122Z,4.33
2023-01-13T22:20:15.398Z,3.37
2023-01-13T22:23:20.174Z,3.73
2023-01-13T22:26:23.220Z,3.53
2023-01-13T22:29:26.203Z,3.37
2023-01-13T22:32:29.265Z,3.90
2023-01-13T22:35:33.713Z,3.47
2023-01-13T22:38:37.022Z,3.67
2023-01-13T22:41:40.020Z,4.10
2023-01-13T22:44:44.420Z,3.37
2023-01-13T22:47:47.941Z,4.10
2023-01-13T22:50:52.348Z,3.80
2023-01-13T22:53:55.729Z,3.90
2023-01-13T22:56:58.861Z,4.27
2023-01-13T23:00:02.091Z,4.07
2023-01-13T23:03:06.708Z,3.87
2023-01-13T23:06:11.222Z,3.83
2023-01-13T23:09:14.258Z,3.70
2023-01-13T23:12:17.260Z,3.60
2023-01-13T23:15:20.826Z,3.70
2023-01-13T23:18:26.317Z,3.70
2023-01-13T23:21:32.856Z,4.10
2023-01-13T23:24:35.973Z,4.07
2023-01-13T23:27:39.424Z,4.13
2023-01-13T23:30:42.504Z,4.10
2023-01-13T23:33:46.461Z,4.50
2023-01-13T23:36:50.932Z,3.80
2023-01-13T23:39:53.978Z,3.80
2023-01-13T23:42:57.072Z,3.90
2023-01-13T23:46:03.461Z,4.50
2023-01-13T23:49:06.502Z,4.00
2023-01-13T23:52:10.943Z,4.00
2023-01-13T23:55:13.998Z,4.40
2023-01-13T23:58:16.974Z,4.20
